Air Quality Table

TIMESTAMP NO2 O3 PM2.5 TEMP HUM AIRPRES WS WD NO
2021-10-17 16:00 N/A 97.78 µg/m3 5.05 µg/m3 23.53 °C N/A 1,004.91 mbar 0.88 m/s 324.68 Deg N/A
2021-10-17 15:00 N/A 96.69 µg/m3 6.4 µg/m3 23.77 °C N/A 1,004.65 mbar 1.31 m/s 337.4 Deg N/A
2021-10-17 14:00 N/A 96.81 µg/m3 6.38 µg/m3 23.99 °C N/A 1,004.82 mbar 1.39 m/s 292.6 Deg N/A
2021-10-17 13:00 N/A 95.78 µg/m3 5.79 µg/m3 23.37 °C N/A 1,005.50 mbar 1.58 m/s 280.06 Deg N/A
2021-10-17 12:00 N/A 95.17 µg/m3 7.23 µg/m3 22.83 °C N/A 1,005.87 mbar 1.84 m/s 279.53 Deg N/A
2021-10-17 11:00 N/A 94.41 µg/m3 5.66 µg/m3 22.83 °C N/A 1,006.11 mbar 1.68 m/s 279.78 Deg N/A
2021-10-17 10:00 N/A 92.77 µg/m3 7.44 µg/m3 22.63 °C N/A 1,006.14 mbar 1.13 m/s 288.01 Deg N/A
2021-10-17 09:00 N/A 71.3 µg/m3 11.97 µg/m3 21.61 °C N/A 1,006.00 mbar 0.52 m/s 207.27 Deg N/A
2021-10-17 08:00 N/A 32.7 µg/m3 12.75 µg/m3 19.33 °C N/A 1,005.67 mbar 0.36 m/s 263.55 Deg N/A
2021-10-17 07:00 N/A 14.99 µg/m3 11.71 µg/m3 16.23 °C N/A 1,005.60 mbar 0.61 m/s 291.73 Deg N/A
2021-10-17 06:00 N/A 7.5 µg/m3 8.04 µg/m3 15.98 °C N/A 1,005.35 mbar 0.5 m/s 296.07 Deg N/A
2021-10-17 05:00 N/A 26.11 µg/m3 4.24 µg/m3 16.12 °C N/A 1,005.25 mbar 0.44 m/s 291.84 Deg N/A
2021-10-17 04:00 N/A 41.28 µg/m3 3.73 µg/m3 16.65 °C N/A 1,005.32 mbar 0.34 m/s 287.17 Deg N/A
2021-10-17 03:00 N/A 47.25 µg/m3 6.6 µg/m3 16.94 °C N/A 1,005.60 mbar 0.39 m/s 292.05 Deg N/A
2021-10-17 02:00 N/A 31.47 µg/m3 6.49 µg/m3 17.5 °C N/A 1,005.75 mbar 0.32 m/s 286.68 Deg N/A
2021-10-17 01:00 N/A 31.36 µg/m3 6.34 µg/m3 18.09 °C N/A 1,005.71 mbar 0.35 m/s 287.74 Deg N/A
2021-10-17 00:00 N/A 50.6 µg/m3 7.93 µg/m3 18.52 °C N/A 1,005.77 mbar 0.33 m/s 307.8 Deg N/A
2021-10-16 23:00 N/A 32.79 µg/m3 6.6 µg/m3 18.35 °C N/A 1,005.87 mbar 0.5 m/s 252.19 Deg N/A
2021-10-16 22:00 N/A 57.14 µg/m3 4.9 µg/m3 18.57 °C N/A 1,005.94 mbar 0.38 m/s 289.25 Deg N/A
2021-10-16 21:00 N/A 74.94 µg/m3 4.15 µg/m3 18.7 °C N/A 1,005.90 mbar 0.37 m/s 307.82 Deg N/A
2021-10-16 20:00 N/A 79.98 µg/m3 3.01 µg/m3 19.14 °C N/A 1,005.56 mbar 0.42 m/s 318.31 Deg N/A
2021-10-16 19:00 N/A 85.93 µg/m3 3.75 µg/m3 19.7 °C N/A 1,005.12 mbar 0.53 m/s 319.6 Deg N/A

It is to be noted that the data is provisional and subject to quality assurance procedures. For validated data kindly refer your request to contact.air@era.org.mt